createdAt,value
2018-12-16T00:00:37.185Z,86.90
2018-12-16T00:01:37.877Z,86.99
2018-12-16T00:02:37.745Z,86.80
2018-12-16T00:03:37.924Z,86.99
2018-12-16T00:04:37.932Z,87.37
2018-12-16T00:05:37.225Z,86.90
2018-12-16T00:06:37.786Z,87.18
2018-12-16T00:07:37.807Z,87.08
2018-12-16T00:08:37.920Z,87.18
2018-12-16T00:09:37.834Z,87.27
2018-12-16T00:10:37.864Z,87.27
2018-12-16T00:11:37.809Z,87.27
2018-12-16T00:12:37.687Z,87.13
2018-12-16T00:13:37.839Z,86.14
2018-12-16T00:14:38.078Z,86.47
2018-12-16T00:15:37.782Z,86.28
2018-12-16T00:16:37.899Z,86.61
2018-12-16T00:17:37.547Z,86.42
2018-12-16T00:18:38.041Z,86.66
2018-12-16T00:19:37.695Z,86.71
2018-12-16T00:20:37.852Z,86.56
2018-12-16T00:21:37.800Z,86.33
2018-12-16T00:22:37.657Z,86.37
2018-12-16T00:23:37.858Z,86.47
2018-12-16T00:24:37.660Z,85.90
2018-12-16T00:25:37.716Z,86.28
2018-12-16T00:26:37.701Z,85.80
2018-12-16T00:27:38.515Z,86.37
2018-12-16T00:28:38.083Z,86.18
2018-12-16T00:29:38.029Z,86.23
2018-12-16T00:30:38.047Z,86.04
2018-12-16T00:31:37.555Z,86.99
2018-12-16T00:32:38.089Z,86.37
2018-12-16T00:33:38.065Z,86.37
2018-12-16T00:34:38.061Z,86.14
2018-12-16T00:35:38.070Z,85.90
2018-12-16T00:36:37.546Z,86.18
2018-12-16T00:38:38.482Z,85.80
2018-12-16T00:39:37.994Z,85.90
2018-12-16T00:40:37.871Z,85.61
2018-12-16T00:41:37.897Z,85.80
2018-12-16T00:42:37.881Z,85.80
2018-12-16T00:43:37.491Z,85.61
2018-12-16T00:44:37.486Z,85.76
2018-12-16T00:45:37.548Z,86.09
2018-12-16T00:46:37.505Z,85.80
2018-12-16T00:47:37.515Z,85.61
2018-12-16T00:48:37.505Z,85.57
2018-12-16T00:49:37.495Z,85.85
2018-12-16T00:50:37.952Z,85.90
2018-12-16T00:51:38.097Z,85.61
2018-12-16T00:52:38.098Z,85.80
2018-12-16T00:53:38.054Z,85.05
2018-12-16T00:54:38.269Z,85.42
2018-12-16T00:55:39.996Z,84.95
2018-12-16T00:56:38.096Z,85.14
2018-12-16T00:57:37.514Z,85.71
2018-12-16T00:58:37.547Z,85.33
2018-12-16T00:59:37.539Z,85.71
2018-12-16T01:00:37.598Z,84.95
2018-12-16T01:01:37.557Z,85.42
2018-12-16T01:02:37.548Z,85.24
2018-12-16T01:03:37.477Z,84.86
2018-12-16T01:04:37.518Z,85.24
2018-12-16T01:05:37.492Z,85.33
2018-12-16T01:06:37.981Z,84.77
2018-12-16T01:07:37.823Z,85.52
2018-12-16T01:08:37.647Z,85.61
2018-12-16T01:09:38.117Z,86.04
2018-12-16T01:10:37.569Z,85.61
2018-12-16T01:11:37.048Z,85.61
2018-12-16T01:12:37.756Z,85.61
2018-12-16T01:13:37.554Z,85.61
2018-12-16T01:14:38.005Z,85.61
2018-12-16T01:15:37.577Z,85.71
2018-12-16T01:16:37.581Z,85.61
2018-12-16T01:17:37.581Z,85.80
2018-12-16T01:18:37.529Z,85.90
2018-12-16T01:19:37.553Z,85.14
2018-12-16T01:20:37.555Z,85.24
2018-12-16T01:21:37.594Z,85.24
2018-12-16T01:22:43.224Z,85.71
2018-12-16T01:23:37.594Z,85.71
2018-12-16T01:24:37.556Z,85.61
2018-12-16T01:25:37.542Z,85.90
2018-12-16T01:26:37.565Z,85.90
2018-12-16T01:27:37.567Z,85.80
2018-12-16T01:28:37.591Z,84.95
2018-12-16T01:29:38.496Z,85.42
2018-12-16T01:30:37.545Z,84.95
2018-12-16T01:31:38.011Z,85.24
2018-12-16T01:32:37.063Z,85.33
2018-12-16T01:33:39.499Z,85.33
2018-12-16T01:34:37.976Z,85.80
2018-12-16T01:35:37.857Z,85.61
2018-12-16T01:36:38.071Z,85.80
2018-12-16T01:37:37.804Z,85.33
2018-12-16T01:38:37.826Z,85.71
2018-12-16T01:39:37.296Z,85.71
2018-12-16T01:40:37.541Z,85.42
2018-12-16T01:41:38.008Z,85.42
2018-12-16T01:42:36.972Z,85.24
2018-12-16T01:43:37.007Z,85.24
2018-12-16T01:44:36.481Z,85.14
2018-12-16T01:45:36.856Z,84.77
2018-12-16T01:46:36.905Z,84.58
2018-12-16T01:47:36.916Z,84.86
2018-12-16T01:48:37.025Z,84.48
2018-12-16T01:49:36.841Z,84.67
2018-12-16T01:50:36.892Z,84.95
2018-12-16T01:51:36.489Z,84.67
2018-12-16T01:52:36.846Z,84.77
2018-12-16T01:53:36.916Z,84.58
2018-12-16T01:54:36.884Z,84.95
2018-12-16T01:55:37.047Z,84.67
2018-12-16T01:56:37.042Z,84.58
2018-12-16T01:57:36.938Z,84.48
2018-12-16T01:58:36.868Z,84.29
2018-12-16T01:59:36.846Z,84.77
2018-12-16T02:00:37.011Z,84.77
2018-12-16T02:01:36.866Z,84.39
2018-12-16T02:02:36.813Z,84.86
2018-12-16T02:03:37.009Z,85.24
2018-12-16T02:04:36.973Z,84.95
2018-12-16T02:05:36.871Z,84.77
2018-12-16T02:06:36.968Z,85.42
2018-12-16T02:07:36.948Z,84.95
2018-12-16T02:08:36.847Z,84.39
2018-12-16T02:09:36.940Z,84.58
2018-12-16T02:10:36.903Z,84.39
2018-12-16T02:11:36.859Z,84.48
2018-12-16T02:12:36.872Z,84.48
2018-12-16T02:13:36.900Z,84.86
2018-12-16T02:14:36.267Z,84.77
2018-12-16T02:15:37.016Z,85.52
2018-12-16T02:16:36.864Z,84.77
2018-12-16T02:17:36.251Z,84.77
2018-12-16T02:18:36.409Z,84.39
2018-12-16T02:19:36.542Z,84.77
2018-12-16T02:20:36.503Z,84.39
2018-12-16T02:21:38.485Z,84.39
2018-12-16T02:22:38.302Z,84.20
2018-12-16T02:23:38.371Z,84.58
2018-12-16T02:24:36.242Z,84.58
2018-12-16T02:25:38.369Z,83.82
2018-12-16T02:26:36.532Z,83.82
2018-12-16T02:27:36.548Z,83.82
2018-12-16T02:28:38.349Z,84.01
2018-12-16T02:29:36.461Z,83.82
2018-12-16T02:30:36.446Z,83.53
2018-12-16T02:31:36.080Z,83.82
2018-12-16T02:32:36.049Z,84.39
2018-12-16T02:33:36.412Z,83.82
2018-12-16T02:34:36.546Z,84.01
2018-12-16T02:35:36.520Z,83.72
2018-12-16T02:36:36.492Z,83.82
2018-12-16T02:37:36.394Z,83.82
2018-12-16T02:38:36.372Z,83.91
2018-12-16T02:39:36.364Z,83.63
2018-12-16T02:40:36.308Z,84.48
2018-12-16T02:41:36.369Z,84.39
2018-12-16T02:42:36.367Z,84.29
2018-12-16T02:43:36.310Z,84.39
2018-12-16T02:44:36.424Z,84.48
2018-12-16T02:45:36.371Z,84.77
2018-12-16T02:46:36.301Z,84.58
2018-12-16T02:47:36.389Z,84.67
2018-12-16T02:48:36.317Z,84.39
2018-12-16T02:49:36.358Z,84.01
2018-12-16T02:50:35.966Z,84.58
2018-12-16T02:51:35.861Z,84.29
2018-12-16T02:52:35.914Z,84.39
2018-12-16T02:53:36.331Z,84.77
2018-12-16T02:54:35.852Z,84.39
2018-12-16T02:55:36.323Z,84.67
2018-12-16T02:56:36.408Z,84.48
2018-12-16T02:57:36.458Z,84.77
2018-12-16T02:58:36.305Z,84.58
2018-12-16T02:59:35.850Z,84.58
2018-12-16T03:00:35.901Z,84.39
2018-12-16T03:01:36.372Z,84.48
2018-12-16T03:02:36.411Z,84.58
2018-12-16T03:03:36.365Z,84.01
2018-12-16T03:04:36.311Z,83.72
2018-12-16T03:05:35.791Z,83.44
2018-12-16T03:06:37.819Z,83.63
2018-12-16T03:07:35.698Z,83.53
2018-12-16T03:08:37.890Z,83.44
2018-12-16T03:09:37.965Z,83.91
2018-12-16T03:10:35.779Z,84.10
2018-12-16T03:11:35.980Z,83.34
2018-12-16T03:12:35.993Z,83.53
2018-12-16T03:13:37.852Z,83.53
2018-12-16T03:14:35.876Z,84.01
2018-12-16T03:15:35.832Z,83.91
2018-12-16T03:16:35.961Z,83.53
2018-12-16T03:17:35.937Z,83.72
2018-12-16T03:18:35.880Z,83.53
2018-12-16T03:19:35.832Z,84.10
2018-12-16T03:20:35.932Z,83.53
2018-12-16T03:21:35.974Z,83.25
2018-12-16T03:22:35.937Z,83.34
2018-12-16T03:23:36.029Z,83.15
2018-12-16T03:24:35.915Z,83.44
2018-12-16T03:25:35.956Z,83.25
2018-12-16T03:26:36.412Z,83.53
2018-12-16T03:27:35.849Z,83.25
2018-12-16T03:28:35.705Z,83.25
2018-12-16T03:29:35.904Z,83.25
2018-12-16T03:30:35.873Z,83.44
2018-12-16T03:31:35.998Z,82.91
2018-12-16T03:32:35.833Z,82.78
2018-12-16T03:33:36.009Z,83.06
2018-12-16T03:34:34.998Z,83.25
2018-12-16T03:35:35.370Z,83.72
2018-12-16T03:36:35.941Z,83.44
2018-12-16T03:37:35.952Z,83.44
2018-12-16T03:38:35.915Z,83.29
2018-12-16T03:39:35.928Z,82.97
2018-12-16T03:40:35.895Z,82.68
2018-12-16T03:41:36.040Z,83.06
2018-12-16T03:42:35.850Z,83.34
2018-12-16T03:43:35.829Z,83.53
2018-12-16T03:44:35.891Z,83.53
2018-12-16T03:45:35.855Z,83.53
2018-12-16T03:46:35.827Z,83.15
2018-12-16T03:47:35.835Z,83.25
2018-12-16T03:48:35.834Z,83.34
2018-12-16T03:49:35.860Z,83.44
2018-12-16T03:50:35.849Z,83.67
2018-12-16T03:51:35.861Z,83.06
2018-12-16T03:52:35.878Z,82.97
2018-12-16T03:53:35.807Z,83.25
2018-12-16T03:54:35.891Z,82.72
2018-12-16T03:55:35.898Z,82.97
2018-12-16T03:56:37.341Z,82.91
2018-12-16T03:57:35.522Z,82.72
2018-12-16T03:58:37.280Z,82.91
2018-12-16T03:59:37.360Z,82.87
2018-12-16T04:00:37.458Z,82.72
2018-12-16T04:01:35.396Z,82.44
2018-12-16T04:02:35.540Z,82.82
2018-12-16T04:03:35.536Z,82.72
2018-12-16T04:04:35.558Z,82.72
2018-12-16T04:05:35.487Z,82.63
2018-12-16T04:06:35.510Z,82.34
2018-12-16T04:07:35.457Z,82.34
2018-12-16T04:08:35.502Z,82.34
2018-12-16T04:09:35.509Z,82.15
2018-12-16T04:10:35.527Z,82.21
2018-12-16T04:11:35.007Z,83.01
2018-12-16T04:12:35.554Z,83.20
2018-12-16T04:13:35.000Z,83.06
2018-12-16T04:14:35.441Z,83.39
2018-12-16T04:15:35.332Z,82.53
2018-12-16T04:16:35.003Z,82.34
2018-12-16T04:17:35.376Z,82.34
2018-12-16T04:18:35.348Z,82.15
2018-12-16T04:19:35.316Z,82.15
2018-12-16T04:20:35.407Z,82.25
2018-12-16T04:21:35.262Z,81.77
2018-12-16T04:22:35.369Z,81.59
2018-12-16T04:23:35.175Z,81.68
2018-12-16T04:24:35.408Z,81.68
2018-12-16T04:25:35.348Z,81.77
2018-12-16T04:26:35.367Z,81.96
2018-12-16T04:27:34.872Z,81.96
2018-12-16T04:28:35.428Z,81.59
2018-12-16T04:29:35.326Z,81.30
2018-12-16T04:30:35.402Z,81.96
2018-12-16T04:31:35.523Z,81.68
2018-12-16T04:32:35.355Z,82.34
2018-12-16T04:33:35.376Z,82.44
2018-12-16T04:34:35.330Z,82.34
2018-12-16T04:35:35.419Z,82.63
2018-12-16T04:36:35.417Z,83.29
2018-12-16T04:37:35.392Z,83.01
2018-12-16T04:38:35.390Z,83.20
2018-12-16T04:39:35.368Z,83.48
2018-12-16T04:40:35.319Z,83.10
2018-12-16T04:41:35.303Z,83.20
2018-12-16T04:42:35.460Z,83.20
2018-12-16T04:43:35.329Z,82.91
2018-12-16T04:44:35.352Z,83.39
2018-12-16T04:45:35.465Z,83.20
2018-12-16T04:46:36.835Z,83.20
2018-12-16T04:47:35.499Z,83.86
2018-12-16T04:48:35.502Z,84.05
2018-12-16T04:49:37.432Z,83.72
2018-12-16T04:50:34.896Z,84.42
2018-12-16T04:51:34.906Z,84.39
2018-12-16T04:52:34.969Z,84.81
2018-12-16T04:53:36.067Z,84.23
2018-12-16T04:54:34.970Z,84.81
2018-12-16T04:55:32.971Z,84.42
2018-12-16T04:56:34.697Z,84.71
2018-12-16T04:57:34.967Z,84.61
2018-12-16T04:58:35.090Z,84.42
2018-12-16T04:59:34.980Z,85.00
2018-12-16T05:00:35.035Z,85.75
2018-12-16T05:01:35.076Z,86.04
2018-12-16T05:02:35.035Z,86.41
2018-12-16T05:03:34.980Z,86.94
2018-12-16T05:04:35.079Z,87.17
2018-12-16T05:05:34.979Z,88.07
2018-12-16T05:06:34.905Z,88.36
2018-12-16T05:07:34.864Z,89.12
2018-12-16T05:08:34.905Z,89.40
2018-12-16T05:09:34.672Z,89.97
2018-12-16T05:10:34.399Z,90.44
2018-12-16T05:11:34.760Z,90.34
2018-12-16T05:12:34.903Z,91.20
2018-12-16T05:13:35.026Z,91.48
2018-12-16T05:14:34.932Z,91.01
2018-12-16T05:15:34.872Z,91.67
2018-12-16T05:16:34.913Z,92.05
2018-12-16T05:17:34.875Z,92.71
2018-12-16T05:18:34.903Z,92.90
2018-12-16T05:19:34.909Z,93.94
2018-12-16T05:20:34.803Z,93.47
2018-12-16T05:21:34.848Z,92.94
2018-12-16T05:22:34.831Z,93.37
2018-12-16T05:23:41.602Z,92.85
2018-12-16T05:24:34.146Z,93.09
2018-12-16T05:25:34.891Z,93.04
2018-12-16T05:26:34.928Z,93.42
2018-12-16T05:27:34.870Z,93.42
2018-12-16T05:28:34.904Z,93.32
2018-12-16T05:29:34.990Z,93.32
2018-12-16T05:30:34.814Z,93.28
2018-12-16T05:31:34.992Z,93.70
2018-12-16T05:32:35.036Z,94.51
2018-12-16T05:33:34.967Z,95.36
2018-12-16T05:34:34.931Z,96.69
2018-12-16T05:35:34.938Z,96.59
2018-12-16T05:36:36.506Z,98.01
2018-12-16T05:37:36.522Z,99.24
2018-12-16T05:38:36.392Z,99.99
2018-12-16T05:39:34.543Z,99.80
2018-12-16T05:40:32.528Z,99.99
2018-12-16T05:41:34.273Z,99.80
2018-12-16T05:42:36.468Z,99.99
2018-12-16T05:43:34.793Z,99.99
2018-12-16T05:44:34.635Z,99.99
2018-12-16T05:45:34.480Z,99.99
2018-12-16T05:46:34.535Z,99.99
2018-12-16T05:47:34.224Z,99.99
2018-12-16T05:48:34.399Z,99.99
2018-12-16T05:49:34.474Z,99.99
2018-12-16T05:50:34.480Z,99.99
2018-12-16T05:51:34.519Z,99.99
2018-12-16T05:52:34.471Z,99.99
2018-12-16T05:53:34.504Z,99.99
2018-12-16T05:54:34.499Z,99.99
2018-12-16T05:55:34.496Z,99.99
2018-12-16T05:56:34.465Z,99.99
2018-12-16T05:57:34.510Z,99.99
2018-12-16T05:58:34.429Z,99.99
2018-12-16T05:59:34.469Z,99.99
2018-12-16T06:00:34.503Z,99.99
2018-12-16T06:01:34.604Z,99.99
2018-12-16T06:02:34.007Z,99.99
2018-12-16T06:03:34.568Z,99.99
2018-12-16T06:04:34.546Z,99.99
2018-12-16T06:05:34.557Z,99.99
2018-12-16T06:06:34.594Z,99.99
2018-12-16T06:07:34.419Z,99.99
2018-12-16T06:08:34.528Z,99.99
2018-12-16T06:09:34.523Z,99.99
2018-12-16T06:10:34.548Z,99.99
2018-12-16T06:11:34.515Z,99.99
2018-12-16T06:12:34.563Z,99.99
2018-12-16T06:13:34.539Z,99.99
2018-12-16T06:14:34.550Z,99.99
2018-12-16T06:15:34.386Z,99.99
2018-12-16T06:16:35.726Z,99.99
2018-12-16T06:17:40.919Z,99.99
2018-12-16T06:18:34.590Z,99.99
2018-12-16T06:19:34.432Z,99.99
2018-12-16T06:20:34.384Z,99.99
2018-12-16T06:21:34.355Z,99.99
2018-12-16T06:22:34.308Z,99.99
2018-12-16T06:23:34.540Z,99.99
2018-12-16T06:24:34.548Z,99.99
2018-12-16T06:25:34.515Z,99.99
2018-12-16T06:26:33.956Z,99.99
2018-12-16T06:27:34.020Z,99.99
2018-12-16T06:28:34.770Z,99.99
2018-12-16T06:29:34.060Z,99.99
2018-12-16T06:30:36.493Z,99.99
2018-12-16T06:31:34.487Z,99.99
2018-12-16T06:32:34.072Z,99.99
2018-12-16T06:33:35.087Z,99.99
2018-12-16T06:34:34.750Z,99.99
2018-12-16T06:35:35.428Z,99.99
2018-12-16T06:36:34.010Z,99.99
2018-12-16T06:37:35.997Z,99.99
2018-12-16T06:38:36.056Z,99.99
2018-12-16T06:39:34.341Z,99.99
2018-12-16T06:40:36.037Z,99.99
2018-12-16T06:41:34.063Z,99.99
2018-12-16T06:42:34.034Z,99.99
2018-12-16T06:43:34.009Z,99.99
2018-12-16T06:44:34.454Z,99.99
2018-12-16T06:45:33.939Z,99.99
2018-12-16T06:46:33.867Z,99.99
2018-12-16T06:47:33.894Z,99.99
2018-12-16T06:48:33.970Z,99.99
2018-12-16T06:49:33.930Z,99.99
2018-12-16T06:50:33.986Z,99.99
2018-12-16T06:51:34.011Z,99.99
2018-12-16T06:52:33.881Z,99.99
2018-12-16T06:53:33.957Z,99.99
2018-12-16T06:54:33.874Z,99.99
2018-12-16T06:55:33.946Z,99.99
2018-12-16T06:56:33.957Z,99.99
2018-12-16T06:57:33.865Z,99.99
2018-12-16T06:58:34.003Z,99.99
2018-12-16T06:59:33.862Z,99.99
2018-12-16T07:00:33.484Z,99.99
2018-12-16T07:01:33.372Z,99.99
2018-12-16T07:02:33.919Z,99.99
2018-12-16T07:03:34.046Z,99.99
2018-12-16T07:04:33.942Z,99.99
2018-12-16T07:05:33.899Z,99.99
2018-12-16T07:06:33.918Z,99.99
2018-12-16T07:07:39.930Z,99.99
2018-12-16T07:08:33.992Z,99.99
2018-12-16T07:09:39.937Z,99.99
2018-12-16T07:10:33.985Z,99.99
2018-12-16T07:11:33.901Z,99.99
2018-12-16T07:12:33.935Z,99.99
2018-12-16T07:13:33.920Z,99.99
2018-12-16T07:14:33.912Z,99.99
2018-12-16T07:15:33.488Z,99.99
2018-12-16T07:16:33.598Z,99.99
2018-12-16T07:17:33.515Z,99.99
2018-12-16T07:18:33.231Z,99.99
2018-12-16T07:19:33.959Z,99.99
2018-12-16T07:20:34.263Z,99.99
2018-12-16T07:21:34.060Z,99.99
2018-12-16T07:22:33.973Z,99.99
2018-12-16T07:23:33.951Z,99.99
2018-12-16T07:24:34.301Z,99.99
2018-12-16T07:26:33.523Z,99.99
2018-12-16T07:27:33.381Z,99.99
2018-12-16T07:28:33.548Z,99.99
2018-12-16T07:29:33.384Z,99.99
2018-12-16T07:30:33.414Z,99.99
2018-12-16T07:31:33.495Z,99.99
2018-12-16T07:32:33.493Z,99.99
2018-12-16T07:33:33.481Z,99.99
2018-12-16T07:34:33.511Z,99.99
2018-12-16T07:35:33.542Z,99.99
2018-12-16T07:36:33.481Z,99.99
2018-12-16T07:37:33.054Z,99.99
2018-12-16T07:38:33.473Z,99.99
2018-12-16T07:39:33.818Z,99.99
2018-12-16T07:40:33.544Z,99.99
2018-12-16T07:41:31.253Z,99.99
2018-12-16T07:42:33.054Z,99.99
2018-12-16T07:43:33.630Z,99.99
2018-12-16T07:44:32.991Z,99.99
2018-12-16T07:45:33.973Z,99.99
2018-12-16T07:46:33.505Z,99.99
2018-12-16T07:47:33.442Z,99.99
2018-12-16T07:48:33.477Z,99.99
2018-12-16T07:49:33.544Z,99.99
2018-12-16T07:50:33.030Z,99.99
2018-12-16T07:51:33.989Z,99.99
2018-12-16T07:52:33.510Z,99.99
2018-12-16T07:53:33.549Z,99.99
2018-12-16T07:54:33.432Z,99.99
2018-12-16T07:55:33.991Z,99.99
2018-12-16T07:56:33.566Z,99.99
2018-12-16T07:57:33.525Z,99.99
2018-12-16T07:58:33.551Z,99.99
2018-12-16T07:59:33.528Z,99.99
2018-12-16T08:00:33.993Z,99.99
2018-12-16T08:01:34.000Z,99.99
2018-12-16T08:02:33.616Z,99.99
2018-12-16T08:03:33.500Z,99.99
2018-12-16T08:04:32.983Z,99.99
2018-12-16T08:05:33.790Z,99.99
2018-12-16T08:06:33.551Z,99.99
2018-12-16T08:07:33.939Z,99.99
2018-12-16T08:08:35.110Z,99.99
2018-12-16T08:09:33.481Z,99.99
2018-12-16T08:10:33.761Z,99.99
2018-12-16T08:11:33.661Z,99.99
2018-12-16T08:12:33.464Z,99.99
2018-12-16T08:13:34.922Z,99.99
2018-12-16T08:14:33.041Z,99.99
2018-12-16T08:15:32.876Z,99.99
2018-12-16T08:16:32.852Z,99.99
2018-12-16T08:17:33.029Z,99.99
2018-12-16T08:18:33.047Z,99.99
2018-12-16T08:19:33.083Z,99.99
2018-12-16T08:20:32.941Z,99.99
2018-12-16T08:21:33.489Z,99.99
2018-12-16T08:22:33.329Z,99.99
2018-12-16T08:23:33.591Z,99.99
2018-12-16T08:24:33.982Z,99.99
2018-12-16T08:25:35.019Z,99.99
2018-12-16T08:26:33.017Z,99.99
2018-12-16T08:27:33.370Z,99.99
2018-12-16T08:28:32.561Z,99.99
2018-12-16T08:29:33.037Z,99.99
2018-12-16T08:30:32.841Z,99.99
2018-12-16T08:31:33.075Z,99.99
2018-12-16T08:32:33.315Z,99.99
2018-12-16T08:33:32.950Z,99.99
2018-12-16T08:34:33.009Z,99.99
2018-12-16T08:35:32.988Z,99.99
2018-12-16T08:36:33.019Z,99.99
2018-12-16T08:37:33.474Z,99.99
2018-12-16T08:38:33.123Z,99.99
2018-12-16T08:39:32.984Z,99.99
2018-12-16T08:40:32.906Z,99.99
2018-12-16T08:41:32.954Z,99.99
2018-12-16T08:42:33.490Z,99.99
2018-12-16T08:43:32.545Z,99.99
2018-12-16T08:44:32.537Z,99.99
2018-12-16T08:45:33.055Z,99.99
2018-12-16T08:46:33.499Z,99.99
2018-12-16T08:47:33.304Z,99.99
2018-12-16T08:48:32.971Z,99.99
2018-12-16T08:49:32.952Z,99.99
2018-12-16T08:50:32.561Z,99.99
2018-12-16T08:51:33.033Z,99.99
2018-12-16T08:52:32.992Z,99.99
2018-12-16T08:53:33.497Z,99.99
2018-12-16T08:54:32.995Z,99.99
2018-12-16T08:55:32.505Z,99.99
2018-12-16T08:56:32.547Z,99.99
2018-12-16T08:57:32.758Z,99.99
2018-12-16T08:58:32.845Z,99.99
2018-12-16T08:59:32.525Z,99.99
2018-12-16T09:00:34.552Z,99.99
2018-12-16T09:01:32.461Z,99.99
2018-12-16T09:02:32.771Z,99.99
2018-12-16T09:03:33.076Z,99.99
2018-12-16T09:04:33.242Z,99.99
2018-12-16T09:05:33.234Z,99.99
2018-12-16T09:06:32.440Z,99.99
2018-12-16T09:07:37.297Z,99.99
2018-12-16T09:08:32.989Z,99.99
2018-12-16T09:09:32.588Z,99.99
2018-12-16T09:10:34.354Z,99.99
2018-12-16T09:11:32.991Z,99.99
2018-12-16T09:12:33.006Z,99.99
2018-12-16T09:13:32.498Z,99.99
2018-12-16T09:14:32.244Z,99.99
2018-12-16T09:15:32.525Z,99.99
2018-12-16T09:16:32.534Z,99.99
2018-12-16T09:17:32.528Z,99.99
2018-12-16T09:18:33.063Z,99.99
2018-12-16T09:19:32.820Z,99.99
2018-12-16T09:20:32.525Z,99.99
2018-12-16T09:22:32.630Z,99.99
2018-12-16T09:23:32.995Z,99.99
2018-12-16T09:24:37.164Z,99.99
2018-12-16T09:25:32.551Z,99.99
2018-12-16T09:26:32.523Z,99.99
2018-12-16T09:27:32.543Z,99.99
2018-12-16T09:28:32.975Z,99.99
2018-12-16T09:29:32.964Z,99.99
2018-12-16T09:30:32.036Z,99.99
2018-12-16T09:31:32.973Z,99.99
2018-12-16T09:32:32.472Z,99.99
2018-12-16T09:33:32.332Z,99.99
2018-12-16T09:34:32.265Z,99.99
2018-12-16T09:35:32.462Z,99.99
2018-12-16T09:36:32.557Z,99.99
2018-12-16T09:37:32.543Z,99.99
2018-12-16T09:38:32.960Z,99.99
2018-12-16T09:39:31.790Z,99.99
2018-12-16T09:40:32.511Z,99.99
2018-12-16T09:41:32.469Z,99.99
2018-12-16T09:42:32.537Z,99.99
2018-12-16T09:43:32.647Z,99.99
2018-12-16T09:44:32.659Z,99.99
2018-12-16T09:45:32.664Z,99.99
2018-12-16T09:46:34.495Z,99.99
2018-12-16T09:47:32.011Z,99.99
2018-12-16T09:48:32.317Z,99.99
2018-12-16T09:49:36.286Z,99.99
2018-12-16T09:50:31.872Z,99.99
2018-12-16T09:51:31.934Z,99.99
2018-12-16T09:52:32.047Z,99.99
2018-12-16T09:53:32.004Z,99.99
2018-12-16T09:54:32.991Z,99.99
2018-12-16T09:55:32.036Z,99.99
2018-12-16T09:56:29.974Z,99.99
2018-12-16T09:57:32.059Z,99.99
2018-12-16T09:58:31.612Z,99.99
2018-12-16T09:59:31.541Z,99.99
2018-12-16T10:00:34.342Z,99.99
2018-12-16T10:01:32.553Z,99.99
2018-12-16T10:02:52.528Z,99.99
2018-12-16T10:03:32.457Z,99.99
2018-12-16T10:04:32.929Z,99.99
2018-12-16T10:05:32.247Z,99.99
2018-12-16T10:06:31.928Z,99.99
2018-12-16T10:07:32.025Z,99.99
2018-12-16T10:08:32.481Z,99.99
2018-12-16T10:09:34.004Z,99.99
2018-12-16T10:10:32.513Z,99.99
2018-12-16T10:11:31.453Z,99.99
2018-12-16T10:12:31.777Z,99.99
2018-12-16T10:13:31.612Z,99.99
2018-12-16T10:14:32.174Z,99.99
2018-12-16T10:15:32.456Z,99.99
2018-12-16T10:16:31.956Z,99.99
2018-12-16T10:17:31.993Z,99.99
2018-12-16T10:18:32.142Z,99.99
2018-12-16T10:19:32.474Z,99.99
2018-12-16T10:20:32.458Z,99.99
2018-12-16T10:21:31.525Z,99.99
2018-12-16T10:22:31.850Z,99.99
2018-12-16T10:23:31.878Z,99.99
2018-12-16T10:24:31.991Z,99.99
2018-12-16T10:25:32.047Z,99.99
2018-12-16T10:26:32.535Z,99.99
2018-12-16T10:27:32.178Z,99.99
2018-12-16T10:28:32.064Z,99.99
2018-12-16T10:29:32.086Z,99.99
2018-12-16T10:30:32.083Z,99.99
2018-12-16T10:31:32.149Z,99.99
2018-12-16T10:32:32.465Z,99.99
2018-12-16T10:33:32.113Z,99.99
2018-12-16T10:34:31.953Z,99.99
2018-12-16T10:35:33.385Z,99.99
2018-12-16T10:36:33.830Z,99.99
2018-12-16T10:37:33.915Z,99.99
2018-12-16T10:38:31.588Z,99.99
2018-12-16T10:39:32.025Z,99.99
2018-12-16T10:40:31.919Z,99.99
2018-12-16T10:41:31.874Z,99.99
2018-12-16T10:42:31.966Z,99.99
2018-12-16T10:43:31.334Z,99.99
2018-12-16T10:44:31.384Z,99.99
2018-12-16T10:45:31.486Z,99.99
2018-12-16T10:46:31.567Z,99.99
2018-12-16T10:47:31.523Z,99.99
2018-12-16T10:48:31.505Z,99.99
2018-12-16T10:49:31.477Z,99.99
2018-12-16T10:50:31.957Z,99.99
2018-12-16T10:51:31.870Z,99.99
2018-12-16T10:52:31.989Z,99.99
2018-12-16T10:53:31.371Z,99.99
2018-12-16T10:54:31.286Z,99.99
2018-12-16T10:55:31.263Z,99.99
2018-12-16T10:56:31.348Z,99.99
2018-12-16T10:57:31.319Z,99.99
2018-12-16T10:58:31.551Z,99.99
2018-12-16T10:59:31.535Z,99.99
2018-12-16T11:00:31.527Z,99.99
2018-12-16T11:01:31.525Z,99.99
2018-12-16T11:02:31.499Z,99.99
2018-12-16T11:03:31.979Z,99.99
2018-12-16T11:04:31.529Z,99.99
2018-12-16T11:05:31.992Z,99.99
2018-12-16T11:06:31.332Z,99.99
2018-12-16T11:07:31.322Z,99.99
2018-12-16T11:08:31.527Z,99.99
2018-12-16T11:09:31.500Z,99.99
2018-12-16T11:10:31.828Z,99.99
2018-12-16T11:11:31.987Z,99.99
2018-12-16T11:12:31.988Z,99.99
2018-12-16T11:13:31.595Z,99.99
2018-12-16T11:14:31.497Z,99.99
2018-12-16T11:15:31.622Z,99.99
2018-12-16T11:16:31.771Z,99.99
2018-12-16T11:17:31.426Z,99.99
2018-12-16T11:18:31.351Z,99.99
2018-12-16T11:19:31.304Z,99.99
2018-12-16T11:20:31.959Z,99.99
2018-12-16T11:21:31.492Z,99.99
2018-12-16T11:22:31.531Z,99.99
2018-12-16T11:23:31.556Z,99.99
2018-12-16T11:24:31.556Z,99.99
2018-12-16T11:25:33.496Z,99.99
2018-12-16T11:26:31.433Z,99.99
2018-12-16T11:27:31.473Z,99.99
2018-12-16T11:28:31.059Z,99.99
2018-12-16T11:29:31.004Z,99.99
2018-12-16T11:30:30.997Z,99.99
2018-12-16T11:31:31.119Z,99.99
2018-12-16T11:32:31.149Z,99.99
2018-12-16T11:33:31.052Z,99.99
2018-12-16T11:34:31.065Z,99.99
2018-12-16T11:35:31.073Z,99.99
2018-12-16T11:36:31.086Z,99.99
2018-12-16T11:37:31.517Z,99.99
2018-12-16T11:38:31.501Z,99.99
2018-12-16T11:39:31.489Z,99.99
2018-12-16T11:40:31.069Z,99.99
2018-12-16T11:41:31.100Z,99.99
2018-12-16T11:42:30.996Z,99.99
2018-12-16T11:43:31.143Z,99.99
2018-12-16T11:44:37.038Z,99.99
2018-12-16T11:45:45.550Z,99.99
2018-12-16T11:46:30.997Z,99.99
2018-12-16T11:47:30.794Z,99.99
2018-12-16T11:48:31.086Z,99.99
2018-12-16T11:49:31.066Z,99.99
2018-12-16T11:50:31.046Z,99.99
2018-12-16T11:51:31.051Z,99.99
2018-12-16T11:53:31.034Z,99.99
2018-12-16T11:54:31.059Z,99.99
2018-12-16T11:55:31.475Z,99.99
2018-12-16T11:56:32.654Z,99.99
2018-12-16T11:57:30.771Z,99.99
2018-12-16T11:58:30.938Z,99.99
2018-12-16T11:59:31.156Z,99.99
2018-12-16T12:00:30.731Z,99.99
2018-12-16T12:01:31.036Z,99.99
2018-12-16T12:02:32.929Z,99.99
2018-12-16T12:03:31.053Z,99.99
2018-12-16T12:04:30.612Z,99.99
2018-12-16T12:05:30.962Z,99.99
2018-12-16T12:06:31.171Z,99.99
2018-12-16T12:07:31.473Z,99.99
2018-12-16T12:08:31.118Z,99.99
2018-12-16T12:09:31.473Z,99.99
2018-12-16T12:10:31.333Z,99.99
2018-12-16T12:11:31.462Z,99.99
2018-12-16T12:12:30.617Z,99.99
2018-12-16T12:13:31.081Z,99.99
2018-12-16T12:14:31.478Z,99.99
2018-12-16T12:15:30.498Z,99.99
2018-12-16T12:16:31.045Z,99.99
2018-12-16T12:17:32.529Z,99.99
2018-12-16T12:18:32.622Z,99.99
2018-12-16T12:19:30.500Z,99.99
2018-12-16T12:20:30.615Z,99.99
2018-12-16T12:21:32.609Z,99.99
2018-12-16T12:22:32.989Z,99.99
2018-12-16T12:23:30.974Z,99.99
2018-12-16T12:24:30.675Z,99.99
2018-12-16T12:25:31.446Z,99.99
2018-12-16T12:26:30.651Z,99.99
2018-12-16T12:27:31.161Z,99.99
2018-12-16T12:28:30.545Z,99.99
2018-12-16T12:29:30.839Z,99.99
2018-12-16T12:30:30.502Z,99.99
2018-12-16T12:31:32.594Z,99.99
2018-12-16T12:32:32.570Z,99.99
2018-12-16T12:33:30.930Z,99.99
2018-12-16T12:34:30.492Z,99.99
2018-12-16T12:35:30.478Z,99.99
2018-12-16T12:36:30.588Z,99.99
2018-12-16T12:37:30.994Z,99.99
2018-12-16T12:38:30.443Z,99.99
2018-12-16T12:39:30.975Z,99.99
2018-12-16T12:40:30.534Z,99.99
2018-12-16T12:41:30.978Z,99.99
2018-12-16T12:42:30.956Z,99.99
2018-12-16T12:43:30.480Z,99.99
2018-12-16T12:44:36.557Z,99.99
2018-12-16T12:45:36.814Z,99.99
2018-12-16T12:46:30.071Z,99.99
2018-12-16T12:47:30.989Z,99.99
2018-12-16T12:48:30.702Z,99.99
2018-12-16T12:49:30.576Z,99.99
2018-12-16T12:50:30.832Z,99.99
2018-12-16T12:51:30.967Z,99.99
2018-12-16T12:52:30.542Z,99.99
2018-12-16T12:53:30.030Z,99.99
2018-12-16T12:54:30.041Z,99.99
2018-12-16T12:55:30.604Z,99.99
2018-12-16T12:56:30.900Z,99.99